Time;durP1;ratioP1;P1;durP2;ratioP2;P2;SDS_P1;SDS_P2;PMS_P1;PMS_P2;Temp;Humidity;BMP_temperature;BMP_pressure;BME280_temperature;BME280_humidity;BME280_pressure;Samples;Min_cycle;Max_cycle;Signal;HPM_P1;HPM_P2
2024/01/19 00:02:19;;;;;;;3.20;2.90;;;5.60;76.10;4.00;95628.00;;;;5069031;28;20215;-77
2024/01/19 00:04:46;;;;;;;6.20;3.20;;;5.70;76.20;4.00;95638.00;;;;5069205;28;20204;-77
2024/01/19 00:07:14;;;;;;;5.17;2.80;;;5.70;76.10;4.00;95651.00;;;;5069562;28;20283;-78
2024/01/19 00:09:41;;;;;;;3.13;2.83;;;5.70;75.90;4.00;95658.00;;;;5071364;28;21028;-78
2024/01/19 00:12:09;;;;;;;3.50;2.93;;;5.70;75.90;4.00;95665.00;;;;5070857;28;20220;-78
2024/01/19 00:14:36;;;;;;;3.20;2.90;;;5.70;76.00;4.00;95672.00;;;;5071270;28;20664;-78
2024/01/19 00:17:05;;;;;;;4.63;3.07;;;5.70;75.80;4.00;95676.00;;;;5072019;28;20276;-78
2024/01/19 00:19:33;;;;;;;3.87;2.87;;;5.70;75.80;4.00;95677.00;;;;5072817;28;20228;-78
2024/01/19 00:22:01;;;;;;;3.37;2.50;;;5.70;75.80;4.00;95681.00;;;;5070613;28;20272;-77
2024/01/19 00:24:29;;;;;;;3.97;2.50;;;5.70;75.80;4.00;95684.00;;;;5074521;28;20200;-78
2024/01/19 00:26:57;;;;;;;3.87;2.70;;;5.70;75.90;4.00;95691.00;;;;5069642;28;20216;-78
2024/01/19 00:29:24;;;;;;;4.00;2.63;;;5.70;75.80;4.00;95696.00;;;;5075587;28;20219;-78
2024/01/19 00:31:51;;;;;;;3.27;2.93;;;5.70;75.60;4.00;95697.00;;;;5075927;28;21362;-78
2024/01/19 00:34:20;;;;;;;5.43;2.53;;;5.70;75.60;4.00;95706.00;;;;5074181;28;20215;-78
2024/01/19 00:36:47;;;;;;;4.57;2.87;;;5.70;75.50;4.00;95709.00;;;;5067676;28;20230;-78
2024/01/19 00:39:15;;;;;;;3.80;2.57;;;5.70;75.60;4.00;95709.00;;;;5072736;28;20294;-77
2024/01/19 00:41:42;;;;;;;6.43;3.10;;;5.70;75.80;4.00;95707.00;;;;5073001;28;20188;-78
2024/01/19 00:44:09;;;;;;;4.20;2.57;;;5.70;75.40;4.00;95704.00;;;;5067673;28;20631;-77
2024/01/19 00:46:36;;;;;;;3.87;2.57;;;5.70;75.70;4.00;95707.00;;;;5073230;28;20274;-77
2024/01/19 00:49:04;;;;;;;2.87;2.10;;;5.70;75.80;4.00;95717.00;;;;5076639;28;20303;-78
2024/01/19 00:51:32;;;;;;;5.17;2.90;;;5.70;75.70;4.00;95716.00;;;;5079743;28;20215;-78
2024/01/19 00:54:00;;;;;;;11.50;2.73;;;5.70;75.70;4.00;95716.00;;;;5075431;28;20206;-78
2024/01/19 00:56:27;;;;;;;4.43;2.87;;;5.70;75.60;3.90;95720.00;;;;5075241;28;20212;-78
2024/01/19 00:58:54;;;;;;;3.50;2.60;;;5.60;75.40;3.90;95721.00;;;;5075987;28;20233;-78
2024/01/19 01:01:21;;;;;;;7.83;2.80;;;5.70;75.40;3.90;95734.00;;;;5074604;28;20219;-78
2024/01/19 01:03:49;;;;;;;4.90;2.30;;;5.70;75.50;3.90;95738.00;;;;5073252;28;20645;-78
2024/01/19 01:06:16;;;;;;;3.37;2.53;;;5.60;75.70;3.90;95739.00;;;;5075047;28;20216;-78
2024/01/19 01:08:45;;;;;;;2.43;2.20;;;5.70;75.60;3.90;95741.00;;;;5072711;28;20223;-78
2024/01/19 01:11:12;;;;;;;5.53;2.30;;;5.60;75.30;3.90;95738.00;;;;5079537;28;20306;-78
2024/01/19 01:13:39;;;;;;;3.70;2.43;;;5.60;75.40;3.90;95744.00;;;;5076699;28;20672;-78
2024/01/19 01:16:07;;;;;;;2.43;2.23;;;5.60;75.40;3.90;95745.00;;;;5078570;28;20283;-77
2024/01/19 01:18:34;;;;;;;5.03;2.20;;;5.60;75.50;3.90;95753.00;;;;5077002;28;20319;-78
2024/01/19 01:21:01;;;;;;;7.07;2.40;;;5.60;75.60;3.90;95758.00;;;;5078468;28;20270;-78
2024/01/19 01:23:29;;;;;;;2.70;2.10;;;5.60;75.70;3.90;95766.00;;;;5074444;28;20192;-77
2024/01/19 01:25:58;;;;;;;2.53;2.17;;;5.60;75.60;3.90;95771.00;;;;5077035;28;20214;-78
2024/01/19 01:28:26;;;;;;;2.80;2.00;;;5.60;75.20;3.90;95775.00;;;;5078137;28;20279;-78
2024/01/19 01:30:53;;;;;;;5.37;2.27;;;5.60;75.10;3.90;95766.00;;;;5073057;28;20196;-77
2024/01/19 01:33:21;;;;;;;4.67;1.93;;;5.60;75.00;3.90;95773.00;;;;5074189;28;20198;-77
2024/01/19 01:35:48;;;;;;;6.97;2.10;;;5.60;75.10;3.90;95778.00;;;;5072868;28;20287;-79
2024/01/19 01:38:15;;;;;;;4.80;2.30;;;5.60;75.50;3.90;95777.00;;;;5071830;28;20191;-78
2024/01/19 01:40:42;;;;;;;3.97;2.30;;;5.60;75.50;3.90;95791.00;;;;5071310;28;20188;-77
2024/01/19 01:43:22;;;;;;;2.60;2.03;;;5.60;75.50;3.90;95782.00;;;;5072245;28;20569;-77
2024/01/19 01:45:49;;;;;;;2.70;2.23;;;5.60;75.30;3.90;95790.00;;;;5070698;28;20613;-78
2024/01/19 01:48:17;;;;;;;2.47;1.90;;;5.60;75.70;3.90;95794.00;;;;5076364;28;20207;-78
2024/01/19 01:50:45;;;;;;;3.40;2.07;;;5.60;75.40;3.90;95807.00;;;;5071207;28;20269;-78
2024/01/19 01:53:14;;;;;;;2.20;2.00;;;5.60;75.40;3.90;95804.00;;;;5072016;28;20212;-78
2024/01/19 01:55:41;;;;;;;3.80;2.10;;;5.60;75.40;3.90;95807.00;;;;5073938;28;20222;-77
2024/01/19 01:58:10;;;;;;;2.40;1.80;;;5.60;75.30;3.90;95801.00;;;;5069853;28;20271;-78
2024/01/19 02:00:39;;;;;;;1.70;1.60;;;5.60;76.20;3.90;95807.00;;;;5072889;28;20203;-78
2024/01/19 02:03:07;;;;;;;2.37;1.90;;;5.60;75.20;3.90;95817.00;;;;5071813;28;20623;-78
2024/01/19 02:05:35;;;;;;;2.87;1.73;;;5.60;75.00;3.90;95818.00;;;;5073326;28;20176;-78
2024/01/19 02:08:03;;;;;;;2.63;1.87;;;5.60;75.00;3.90;95831.00;;;;5080017;28;20660;-78
2024/01/19 02:10:30;;;;;;;3.83;1.87;;;5.60;75.20;3.90;95824.00;;;;5073225;28;20682;-78
2024/01/19 02:12:58;;;;;;;4.20;2.07;;;5.60;76.00;3.90;95836.00;;;;5071717;28;20188;-78
2024/01/19 02:15:27;;;;;;;4.60;2.00;;;5.70;75.20;3.90;95843.00;;;;5071094;28;20284;-78
2024/01/19 02:17:55;;;;;;;2.00;1.80;;;5.60;74.90;3.90;95843.00;;;;5075001;28;20242;-79
2024/01/19 02:20:23;;;;;;;2.30;2.10;;;5.60;74.80;3.80;95847.00;;;;5070550;28;20580;-78
2024/01/19 02:22:52;;;;;;;2.73;2.00;;;5.60;74.80;3.80;95842.00;;;;5070779;28;20208;-78
2024/01/19 02:25:21;;;;;;;2.10;1.90;;;5.60;74.60;3.80;95851.00;;;;5066677;28;20267;-76
2024/01/19 02:27:48;;;;;;;2.50;1.77;;;5.60;74.30;3.80;95855.00;;;;5074429;28;20511;-77
2024/01/19 02:30:15;;;;;;;2.03;1.87;;;5.60;74.40;3.70;95860.00;;;;5064223;28;20253;-77
2024/01/19 02:32:43;;;;;;;3.33;2.00;;;5.50;74.20;3.70;95872.00;;;;5070087;28;20192;-77
2024/01/19 02:35:10;;;;;;;3.30;2.23;;;5.50;74.30;3.70;95875.00;;;;5071411;28;20196;-78
2024/01/19 02:37:37;;;;;;;4.27;2.57;;;5.50;74.50;3.70;95877.00;;;;5077483;28;20709;-78
2024/01/19 02:40:06;;;;;;;3.77;2.80;;;5.50;74.60;3.70;95882.00;;;;5069824;28;20211;-77
2024/01/19 02:42:35;;;;;;;3.73;2.30;;;5.50;74.70;3.70;95882.00;;;;5074304;28;20224;-78
2024/01/19 02:45:02;;;;;;;2.80;2.00;;;5.50;74.70;3.70;95892.00;;;;5070972;28;20285;-78
2024/01/19 02:47:30;;;;;;;4.03;2.43;;;5.50;74.70;3.70;95893.00;;;;5071861;28;20192;-78
2024/01/19 02:49:57;;;;;;;4.83;2.43;;;5.50;74.90;3.70;95891.00;;;;5076428;28;20294;-78
2024/01/19 02:52:31;;;;;;;6.17;2.60;;;5.40;74.80;3.60;95902.00;;;;5075302;28;20299;-78
2024/01/19 02:54:58;;;;;;;3.20;2.80;;;5.40;74.80;3.60;95906.00;;;;5060179;28;20574;-78
2024/01/19 02:57:25;;;;;;;4.77;2.73;;;5.40;75.10;3.60;95910.00;;;;5073364;28;20246;-78
2024/01/19 02:59:54;;;;;;;4.37;3.10;;;5.40;74.90;3.60;95913.00;;;;5071148;28;20216;-78
2024/01/19 03:02:21;;;;;;;3.67;3.10;;;5.40;74.80;3.60;95916.00;;;;5071985;28;20216;-78
2024/01/19 03:04:49;;;;;;;2.90;2.70;;;5.40;74.90;3.60;95919.00;;;;5072270;28;20718;-78
2024/01/19 03:07:16;;;;;;;3.07;2.77;;;5.40;74.60;3.60;95920.00;;;;5071604;28;20216;-77
2024/01/19 03:09:43;;;;;;;5.53;3.17;;;5.30;74.70;3.50;95916.00;;;;5070141;28;20219;-78
2024/01/19 03:12:10;;;;;;;3.37;2.80;;;5.30;74.60;3.50;95916.00;;;;5072086;28;20204;-78
2024/01/19 03:14:38;;;;;;;6.40;2.90;;;5.30;74.50;3.50;95918.00;;;;5071054;28;20271;-77
2024/01/19 03:17:07;;;;;;;4.63;3.03;;;5.30;74.60;3.50;95929.00;;;;5075101;28;20275;-78
2024/01/19 03:19:34;;;;;;;3.60;2.83;;;5.30;74.50;3.40;95918.00;;;;5075102;28;20290;-78
2024/01/19 03:22:01;;;;;;;4.40;2.83;;;5.30;74.40;3.40;95930.00;;;;5072023;28;20184;-78
2024/01/19 03:24:29;;;;;;;2.77;2.57;;;5.20;74.50;3.40;95920.00;;;;5073147;28;20687;-78
2024/01/19 03:26:56;;;;;;;4.87;2.67;;;5.20;74.50;3.40;95929.00;;;;5070134;28;20271;-78
2024/01/19 03:29:24;;;;;;;3.30;2.70;;;5.10;74.20;3.30;95926.00;;;;5069789;28;20230;-78
2024/01/19 03:31:52;;;;;;;5.47;2.93;;;5.10;74.10;3.30;95935.00;;;;5070700;28;20230;-78
2024/01/19 03:34:21;;;;;;;3.23;2.80;;;5.10;74.00;3.20;95936.00;;;;5071433;28;20658;-78
2024/01/19 03:36:49;;;;;;;3.47;2.97;;;5.10;74.00;3.20;95938.00;;;;5068030;28;20188;-78
2024/01/19 03:39:17;;;;;;;3.30;2.77;;;5.00;74.00;3.20;95946.00;;;;5071219;28;20240;-77
2024/01/19 03:41:46;;;;;;;3.93;2.50;;;5.00;74.20;3.10;95942.00;;;;5076128;28;20560;-77
2024/01/19 03:44:13;;;;;;;4.00;2.60;;;4.90;74.20;3.10;95953.00;;;;5071883;28;20701;-77
2024/01/19 03:46:40;;;;;;;3.33;2.93;;;4.90;74.60;3.10;95948.00;;;;5071615;28;20717;-77
2024/01/19 03:49:07;;;;;;;4.90;2.90;;;4.90;74.50;3.00;95945.00;;;;5071729;28;20311;-77
2024/01/19 03:51:36;;;;;;;5.93;3.60;;;4.90;74.50;3.00;95949.00;;;;5069557;28;20684;-78
2024/01/19 03:54:03;;;;;;;5.87;3.27;;;4.90;74.60;3.00;95953.00;;;;5071478;28;20186;-77
2024/01/19 03:56:31;;;;;;;6.10;3.10;;;4.80;74.60;2.90;95953.00;;;;5071928;28;20218;-77
2024/01/19 03:58:58;;;;;;;7.60;4.27;;;4.80;74.70;2.90;95953.00;;;;5062463;28;20294;-78
2024/01/19 04:01:25;;;;;;;3.33;3.03;;;4.80;75.50;2.90;95960.00;;;;5074381;28;20231;-78
2024/01/19 04:03:52;;;;;;;9.20;3.20;;;4.70;74.80;2.90;95957.00;;;;5053884;28;20204;-78
2024/01/19 04:06:20;;;;;;;5.23;3.27;;;4.80;74.80;2.90;95955.00;;;;5071706;28;20701;-78
2024/01/19 04:08:48;;;;;;;3.60;3.30;;;4.70;74.90;2.90;95959.00;;;;5070198;28;20242;-77
2024/01/19 04:11:17;;;;;;;4.60;3.33;;;4.70;74.70;2.80;95958.00;;;;5070809;28;20223;-77
2024/01/19 04:13:44;;;;;;;3.97;3.10;;;4.70;74.60;2.80;95973.00;;;;5062867;28;20228;-78
2024/01/19 04:16:11;;;;;;;3.90;3.50;;;4.70;74.70;2.80;95976.00;;;;5071898;28;20215;-78
2024/01/19 04:18:38;;;;;;;5.23;3.00;;;4.60;74.40;2.70;95975.00;;;;5071077;28;20212;-77
2024/01/19 04:21:07;;;;;;;4.10;3.60;;;4.60;74.50;2.70;95983.00;;;;5071075;28;20282;-77
2024/01/19 04:23:35;;;;;;;3.83;3.47;;;4.60;74.50;2.70;95979.00;;;;5068766;28;20231;-78
2024/01/19 04:26:05;;;;;;;4.50;3.60;;;4.50;74.30;2.70;95979.00;;;;5070489;28;20196;-78
2024/01/19 04:28:32;;;;;;;4.13;3.27;;;4.50;74.40;2.60;95980.00;;;;5070180;28;20666;-78
2024/01/19 04:30:59;;;;;;;6.37;3.83;;;4.50;74.50;2.60;95980.00;;;;5062746;28;20218;-77
2024/01/19 04:33:26;;;;;;;4.67;3.40;;;4.50;74.40;2.60;95979.00;;;;5068958;28;20221;-77
2024/01/19 04:35:53;;;;;;;4.50;3.60;;;4.40;74.50;2.50;95979.00;;;;5062617;28;20725;-77
2024/01/19 04:38:21;;;;;;;4.23;3.63;;;4.40;74.50;2.50;95987.00;;;;5062287;28;20211;-77
2024/01/19 04:40:49;;;;;;;4.13;3.57;;;4.40;74.40;2.50;95986.00;;;;5062178;28;20219;-77
2024/01/19 04:43:18;;;;;;;4.13;3.50;;;4.30;74.30;2.40;95993.00;;;;5068182;28;20195;-77
2024/01/19 04:45:47;;;;;;;4.13;3.50;;;4.30;75.00;2.40;95991.00;;;;5069324;28;20195;-77
2024/01/19 04:48:14;;;;;;;5.03;3.47;;;4.30;74.20;2.40;95988.00;;;;5068946;28;20276;-77
2024/01/19 04:50:42;;;;;;;4.93;3.90;;;4.30;74.20;2.30;95999.00;;;;5069034;28;20220;-77
2024/01/19 04:53:09;;;;;;;4.27;3.87;;;4.20;74.30;2.30;96002.00;;;;5068831;28;20228;-78
2024/01/19 04:55:37;;;;;;;3.53;3.20;;;4.20;74.40;2.30;96005.00;;;;5069431;28;20220;-76
2024/01/19 04:58:04;;;;;;;4.40;3.70;;;4.10;74.90;2.30;96011.00;;;;5070973;28;20183;-77
2024/01/19 05:00:33;;;;;;;6.20;4.13;;;4.10;74.80;2.30;96019.00;;;;5070213;28;20242;-78
2024/01/19 05:03:03;;;;;;;4.73;3.63;;;4.10;74.70;2.30;96016.00;;;;5066386;28;20191;-79
2024/01/19 05:05:30;;;;;;;4.20;3.80;;;4.10;74.70;2.20;96020.00;;;;5072604;28;20189;-79
2024/01/19 05:08:00;;;;;;;12.30;4.60;;;4.10;74.50;2.20;96016.00;;;;5070961;28;20467;-79
2024/01/19 05:10:27;;;;;;;5.17;3.93;;;4.10;74.50;2.20;96022.00;;;;5072453;28;20692;-79
2024/01/19 05:12:54;;;;;;;4.77;4.37;;;4.10;74.70;2.20;96022.00;;;;5071422;28;21056;-80
2024/01/19 05:15:21;;;;;;;4.80;3.63;;;4.00;75.50;2.20;96025.00;;;;5071956;28;20946;-78
2024/01/19 05:17:50;;;;;;;4.37;3.97;;;4.00;74.90;2.20;96028.00;;;;5073761;28;20280;-79
2024/01/19 05:20:18;;;;;;;4.77;3.67;;;4.00;75.00;2.20;96026.00;;;;5079669;28;20270;-79
2024/01/19 05:22:45;;;;;;;10.93;4.13;;;4.00;74.90;2.20;96033.00;;;;5072555;28;20199;-79
2024/01/19 05:25:17;;;;;;;6.87;3.77;;;4.00;75.10;2.10;96036.00;;;;5071352;28;20287;-79
2024/01/19 05:27:47;;;;;;;5.23;4.60;;;4.00;75.00;2.10;96039.00;;;;5073340;28;20196;-79
2024/01/19 05:30:14;;;;;;;6.63;4.40;;;4.00;75.00;2.10;96050.00;;;;5071641;28;20482;-79
2024/01/19 05:32:42;;;;;;;5.03;4.30;;;4.00;74.80;2.10;96048.00;;;;5074067;28;20474;-79
2024/01/19 05:35:10;;;;;;;7.90;4.90;;;3.90;74.80;2.10;96047.00;;;;5075254;28;20180;-79
2024/01/19 05:37:39;;;;;;;8.27;4.50;;;3.90;74.80;2.10;96046.00;;;;5072582;28;20223;-79
2024/01/19 05:40:07;;;;;;;17.83;5.10;;;3.90;74.90;2.00;96055.00;;;;5074854;28;20540;-79
2024/01/19 05:42:35;;;;;;;6.47;4.97;;;3.90;74.90;2.00;96063.00;;;;5074557;28;20292;-79
2024/01/19 05:45:03;;;;;;;7.40;5.23;;;3.90;75.00;2.00;96062.00;;;;5074831;28;20196;-79
2024/01/19 05:47:31;;;;;;;9.63;6.10;;;3.90;75.00;2.00;96062.00;;;;5077094;28;20532;-79
2024/01/19 05:49:59;;;;;;;7.67;5.77;;;3.90;75.10;2.00;96059.00;;;;5069217;28;20279;-79
2024/01/19 05:52:28;;;;;;;7.93;5.40;;;3.80;75.20;2.00;96061.00;;;;5075624;28;20219;-79
2024/01/19 05:54:55;;;;;;;6.23;4.90;;;3.80;75.10;1.90;96071.00;;;;5072847;28;20636;-79
2024/01/19 05:57:25;;;;;;;9.10;5.40;;;3.80;75.20;2.00;96077.00;;;;5074890;28;20438;-79
2024/01/19 05:59:54;;;;;;;6.40;4.40;;;3.80;75.20;2.00;96073.00;;;;5073881;28;20480;-79
2024/01/19 06:02:22;;;;;;;6.83;4.93;;;3.80;75.30;2.00;96078.00;;;;5074880;28;20478;-78
2024/01/19 06:04:51;;;;;;;5.97;4.67;;;3.80;75.40;2.00;96085.00;;;;5075644;28;20533;-79
2024/01/19 06:07:18;;;;;;;5.97;5.00;;;3.80;75.70;2.00;96090.00;;;;5074668;28;20468;-79
2024/01/19 06:09:50;;;;;;;8.40;5.30;;;3.90;75.90;2.00;96089.00;;;;5074189;28;20495;-78
2024/01/19 06:12:17;;;;;;;8.03;5.10;;;3.90;75.90;2.10;96095.00;;;;5074371;28;20505;-79
2024/01/19 06:14:44;;;;;;;8.83;5.10;;;3.90;76.00;2.10;96100.00;;;;5071597;28;20461;-79
2024/01/19 06:17:12;;;;;;;9.53;5.40;;;3.90;76.10;2.10;96106.00;;;;5079462;28;20441;-79
2024/01/19 06:19:41;;;;;;;5.17;4.67;;;4.00;75.90;2.10;96115.00;;;;5077523;28;20200;-79
2024/01/19 06:22:08;;;;;;;6.33;4.73;;;4.00;75.80;2.20;96113.00;;;;5072941;28;20192;-79
2024/01/19 06:24:36;;;;;;;11.03;5.63;;;3.90;75.90;2.20;96118.00;;;;5069721;28;21035;-76
2024/01/19 06:27:05;;;;;;;9.10;6.17;;;4.00;76.00;2.20;96125.00;;;;5075051;28;20492;-77
2024/01/19 06:29:33;;;;;;;10.30;6.90;;;4.10;75.90;2.20;96121.00;;;;5076625;28;20546;-77
2024/01/19 06:32:00;;;;;;;13.20;6.57;;;4.10;75.90;2.30;96128.00;;;;5064020;28;20473;-77
2024/01/19 06:34:28;;;;;;;8.47;5.90;;;4.20;76.00;2.30;96141.00;;;;5075525;28;20474;-77
2024/01/19 06:36:55;;;;;;;7.93;5.43;;;4.10;76.10;2.40;96136.00;;;;5072892;28;20184;-77
2024/01/19 06:39:23;;;;;;;8.03;5.80;;;4.20;76.10;2.40;96152.00;;;;5072580;28;20231;-77
2024/01/19 06:41:50;;;;;;;6.93;5.00;;;4.20;76.10;2.50;96144.00;;;;5062942;28;20204;-77
2024/01/19 06:44:18;;;;;;;6.13;4.77;;;4.20;76.10;2.50;96162.00;;;;5070602;28;20592;-77
2024/01/19 06:46:47;;;;;;;7.33;5.27;;;4.30;76.10;2.50;96168.00;;;;5071993;28;20611;-77
2024/01/19 06:49:14;;;;;;;7.87;5.63;;;4.30;76.10;2.50;96172.00;;;;5070940;28;20287;-77
2024/01/19 06:51:42;;;;;;;6.50;5.67;;;4.40;76.10;2.60;96178.00;;;;5071689;28;20621;-77
2024/01/19 06:54:09;;;;;;;11.27;5.80;;;4.40;76.10;2.60;96180.00;;;;5071970;28;20196;-77
2024/01/19 06:56:36;;;;;;;6.67;5.03;;;4.40;76.10;2.60;96181.00;;;;5071642;28;20238;-77
2024/01/19 06:59:03;;;;;;;6.67;5.53;;;4.40;76.10;2.60;96186.00;;;;5073256;28;20821;-77
2024/01/19 07:01:34;;;;;;;9.43;6.03;;;4.50;75.90;2.70;96180.00;;;;5072003;28;20188;-77
2024/01/19 07:04:02;;;;;;;7.23;5.80;;;4.50;75.90;2.70;96200.00;;;;5072595;28;20907;-77
2024/01/19 07:06:29;;;;;;;7.83;5.67;;;4.50;75.80;2.70;96201.00;;;;5071948;28;20716;-77
2024/01/19 07:08:56;;;;;;;8.73;6.37;;;4.50;75.50;2.70;96212.00;;;;5070871;28;20235;-78
2024/01/19 07:11:23;;;;;;;9.30;6.43;;;4.60;75.50;2.70;96217.00;;;;5069575;28;20184;-77
2024/01/19 07:13:51;;;;;;;7.70;6.00;;;4.60;75.60;2.70;96235.00;;;;5070042;28;20230;-77
2024/01/19 07:16:20;;;;;;;7.87;5.83;;;4.60;75.30;2.70;96242.00;;;;5069247;28;20192;-77
2024/01/19 07:18:48;;;;;;;8.77;5.90;;;4.60;75.10;2.80;96242.00;;;;5070141;28;20258;-77
2024/01/19 07:21:16;;;;;;;8.37;5.93;;;4.60;75.20;2.80;96240.00;;;;5069743;28;20716;-77
2024/01/19 07:23:43;;;;;;;8.50;5.60;;;4.60;75.20;2.80;96248.00;;;;5068747;28;20216;-77
2024/01/19 07:26:11;;;;;;;9.47;5.97;;;4.60;75.20;2.80;96254.00;;;;5072362;28;20683;-77
2024/01/19 07:28:39;;;;;;;10.43;6.10;;;4.60;75.30;2.80;96258.00;;;;5064385;28;20248;-77
2024/01/19 07:31:06;;;;;;;7.13;5.73;;;4.70;75.60;2.80;96254.00;;;;5074118;28;20183;-77
2024/01/19 07:33:33;;;;;;;8.83;6.13;;;4.70;75.40;2.90;96271.00;;;;5068659;28;20591;-77
2024/01/19 07:36:02;;;;;;;9.93;6.10;;;4.70;75.40;2.90;96275.00;;;;5072031;28;20230;-77
2024/01/19 07:38:29;;;;;;;8.80;6.30;;;4.70;75.20;2.90;96264.00;;;;5071464;28;20251;-77
2024/01/19 07:40:58;;;;;;;10.67;6.97;;;4.80;75.40;2.90;96268.00;;;;5062545;28;20199;-77
2024/01/19 07:43:25;;;;;;;9.83;6.53;;;4.80;75.30;3.00;96273.00;;;;5054312;28;20238;-77
2024/01/19 07:45:53;;;;;;;8.27;6.60;;;4.80;75.30;3.00;96277.00;;;;5076269;28;20279;-79
2024/01/19 07:48:20;;;;;;;11.77;7.13;;;4.80;75.30;3.00;96277.00;;;;5073293;28;20218;-78
2024/01/19 07:50:47;;;;;;;11.13;6.67;;;4.90;75.30;3.10;96287.00;;;;5074674;28;20606;-78
2024/01/19 07:53:16;;;;;;;9.30;6.87;;;4.90;75.20;3.20;96286.00;;;;5075348;28;20243;-78
2024/01/19 07:55:46;;;;;;;7.43;6.17;;;5.00;75.20;3.20;96303.00;;;;5072224;28;20215;-78
2024/01/19 07:58:13;;;;;;;10.03;7.13;;;5.00;75.10;3.30;96308.00;;;;5086080;28;20283;-78
2024/01/19 08:00:40;;;;;;;12.23;7.50;;;5.10;75.20;3.30;96313.00;;;;5074345;28;20196;-78
2024/01/19 08:03:08;;;;;;;9.37;6.80;;;5.10;75.20;3.40;96313.00;;;;5078576;28;20192;-78
2024/01/19 08:05:35;;;;;;;9.97;6.90;;;5.20;75.00;3.40;96317.00;;;;5082292;28;20187;-78
2024/01/19 08:08:04;;;;;;;11.17;6.83;;;5.20;74.80;3.40;96321.00;;;;5075443;28;20243;-78
2024/01/19 08:10:34;;;;;;;9.13;6.77;;;5.20;74.70;3.40;96331.00;;;;5073836;28;20576;-78
2024/01/19 08:13:02;;;;;;;12.40;7.53;;;5.30;74.60;3.50;96325.00;;;;5066579;28;20208;-78
2024/01/19 08:15:29;;;;;;;10.40;7.50;;;5.30;74.70;3.50;96339.00;;;;5080279;28;20244;-79
2024/01/19 08:17:56;;;;;;;10.53;7.70;;;5.40;74.70;3.60;96342.00;;;;5067777;28;20191;-79
2024/01/19 08:20:24;;;;;;;11.50;7.50;;;5.40;74.60;3.60;96338.00;;;;5074412;28;20208;-78
2024/01/19 08:22:53;;;;;;;9.17;7.10;;;5.40;74.40;3.60;96350.00;;;;5082480;28;20191;-79
2024/01/19 08:25:21;;;;;;;9.77;6.77;;;5.50;74.40;3.60;96349.00;;;;5080443;28;20663;-78
2024/01/19 08:27:50;;;;;;;10.17;7.30;;;5.50;74.30;3.60;96356.00;;;;5078990;28;20204;-78
2024/01/19 08:30:20;;;;;;;11.50;7.47;;;5.50;74.40;3.70;96355.00;;;;5079477;28;20693;-79
2024/01/19 08:32:47;;;;;;;9.70;6.90;;;5.50;74.30;3.70;96355.00;;;;5084270;28;20207;-79
2024/01/19 08:35:14;;;;;;;10.47;7.33;;;5.50;74.50;3.80;96359.00;;;;5086174;28;20204;-79
2024/01/19 08:37:43;;;;;;;10.93;7.20;;;5.50;74.30;3.80;96364.00;;;;5083573;28;20213;-79
2024/01/19 08:40:12;;;;;;;9.33;7.10;;;5.60;74.90;3.80;96369.00;;;;5082589;28;20214;-79
2024/01/19 08:42:40;;;;;;;8.47;6.23;;;5.60;74.00;3.90;96384.00;;;;5083249;28;20199;-80
2024/01/19 08:45:10;;;;;;;8.07;6.70;;;5.70;74.10;3.90;96373.00;;;;5086788;28;20649;-79
2024/01/19 08:47:37;;;;;;;11.50;7.30;;;5.70;73.90;4.00;96391.00;;;;5082692;28;20180;-79
2024/01/19 08:50:06;;;;;;;10.97;8.13;;;5.70;74.10;4.00;96400.00;;;;5079356;28;20208;-79
2024/01/19 08:52:34;;;;;;;11.30;7.60;;;5.80;74.10;4.10;96392.00;;;;5073833;28;20654;-79
2024/01/19 08:55:09;;;;;;;11.67;7.87;;;5.80;74.00;4.10;96404.00;;;;5061282;28;20180;-79
2024/01/19 08:57:47;;;;;;;8.83;7.57;;;5.90;74.30;4.10;96400.00;;;;5080555;28;20257;-79
2024/01/19 09:00:18;;;;;;;14.57;8.67;;;5.90;73.50;4.20;96406.00;;;;5078714;28;20254;-78
2024/01/19 09:02:48;;;;;;;8.67;6.67;;;5.90;73.90;4.20;96415.00;;;;5078819;28;20184;-79
2024/01/19 09:05:16;;;;;;;11.00;7.10;;;6.00;73.70;4.20;96406.00;;;;5073603;28;20195;-79
2024/01/19 09:07:44;;;;;;;10.57;7.83;;;6.00;74.00;4.30;96423.00;;;;5075616;28;20227;-79
2024/01/19 09:10:12;;;;;;;12.43;8.27;;;6.10;74.10;4.30;96418.00;;;;5076225;28;20695;-78
2024/01/19 09:12:39;;;;;;;9.27;7.33;;;6.00;73.90;4.30;96431.00;;;;5091812;28;20231;-79
2024/01/19 09:15:08;;;;;;;10.07;7.30;;;6.10;73.90;4.40;96427.00;;;;5092958;28;20283;-79
2024/01/19 09:17:37;;;;;;;10.70;7.63;;;6.10;74.10;4.40;96444.00;;;;5078406;28;20718;-80
2024/01/19 09:20:06;;;;;;;11.77;7.83;;;6.20;74.20;4.40;96441.00;;;;5079912;28;20688;-78
2024/01/19 09:22:36;;;;;;;12.70;7.40;;;6.20;74.10;4.50;96455.00;;;;5078337;28;20196;-79
2024/01/19 09:25:03;;;;;;;10.50;7.50;;;6.20;73.70;4.50;96463.00;;;;5071788;28;20656;-79
2024/01/19 09:27:31;;;;;;;10.53;7.47;;;6.30;73.80;4.50;96461.00;;;;5079468;28;20203;-79
2024/01/19 09:29:59;;;;;;;11.33;8.60;;;6.30;73.90;4.60;96471.00;;;;5068217;28;20208;-78
2024/01/19 09:32:26;;;;;;;10.67;7.83;;;6.30;74.40;4.60;96480.00;;;;5079026;28;20215;-79
2024/01/19 09:34:55;;;;;;;9.80;7.93;;;6.40;73.70;4.70;96494.00;;;;5080409;28;20199;-79
2024/01/19 09:37:22;;;;;;;11.13;7.73;;;6.40;73.40;4.70;96493.00;;;;5078456;28;20211;-79
2024/01/19 09:39:50;;;;;;;15.23;8.23;;;6.50;73.40;4.70;96508.00;;;;5077384;28;20216;-79
2024/01/19 09:42:24;;;;;;;10.87;7.23;;;6.50;73.30;4.80;96509.00;;;;5081126;28;20219;-83
2024/01/19 09:45:02;;;;;;;11.87;7.37;;;6.50;72.80;4.80;96509.00;;;;5066376;28;20787;-83
2024/01/19 09:47:47;;;;;;;9.93;7.47;;;6.60;72.90;4.80;96515.00;;;;5080255;28;20194;-83
2024/01/19 09:50:26;;;;;;;11.47;8.13;;;6.60;73.30;4.80;96517.00;;;;5075211;28;20239;-84
2024/01/19 09:52:59;;;;;;;10.60;8.10;;;6.60;73.20;4.80;96518.00;;;;5082875;28;20269;-84
2024/01/19 09:55:27;;;;;;;9.93;7.40;;;6.60;73.20;4.90;96523.00;;;;5084883;28;20184;-84
2024/01/19 09:57:57;;;;;;;9.57;7.53;;;6.70;73.30;4.90;96530.00;;;;5083506;28;20188;-85
2024/01/19 10:00:24;;;;;;;12.03;8.10;;;6.70;73.20;4.90;96542.00;;;;5084444;28;20326;-84
2024/01/19 10:02:54;;;;;;;9.70;8.20;;;6.70;73.50;5.00;96537.00;;;;5088235;28;20313;-84
2024/01/19 10:05:24;;;;;;;9.67;7.67;;;6.70;73.00;5.00;96538.00;;;;5086215;28;20683;-84
2024/01/19 10:07:55;;;;;;;10.40;8.20;;;6.80;73.00;5.00;96540.00;;;;5083943;28;20200;-86
2024/01/19 10:10:22;;;;;;;10.70;8.20;;;6.80;73.20;5.10;96547.00;;;;5081604;28;20227;-85
2024/01/19 10:12:50;;;;;;;9.67;7.87;;;6.80;73.20;5.10;96548.00;;;;5080600;28;20791;-85
2024/01/19 10:15:19;;;;;;;9.53;7.93;;;6.80;73.10;5.10;96549.00;;;;5083491;28;20245;-84
2024/01/19 10:17:46;;;;;;;11.90;8.33;;;6.80;72.70;5.10;96550.00;;;;5079951;28;20332;-84
2024/01/19 10:20:17;;;;;;;10.33;8.30;;;6.90;72.80;5.10;96558.00;;;;5077730;28;20208;-83
2024/01/19 10:22:45;;;;;;;10.87;8.33;;;6.90;72.90;5.10;96563.00;;;;5075697;28;20218;-81
2024/01/19 10:25:15;;;;;;;13.53;8.87;;;6.90;72.80;5.20;96568.00;;;;5075891;28;20216;-81
2024/01/19 10:27:48;;;;;;;11.63;8.60;;;6.90;73.10;5.20;96577.00;;;;5075316;28;20696;-81
2024/01/19 10:30:19;;;;;;;10.60;8.10;;;7.00;73.20;5.30;96567.00;;;;5074620;28;20254;-81
2024/01/19 10:32:49;;;;;;;10.80;7.80;;;7.00;72.70;5.30;96577.00;;;;5073349;28;20234;-80
2024/01/19 10:35:19;;;;;;;11.10;7.77;;;7.00;72.40;5.20;96579.00;;;;5074259;28;20684;-80
2024/01/19 10:37:50;;;;;;;16.27;10.13;;;7.00;72.30;5.20;96579.00;;;;5072067;28;20214;-79
2024/01/19 10:40:24;;;;;;;11.90;8.27;;;7.10;72.30;5.20;96583.00;;;;5072783;28;20752;-80
2024/01/19 10:42:56;;;;;;;10.77;8.37;;;7.00;71.90;5.20;96578.00;;;;5075460;28;20238;-80
2024/01/19 10:45:27;;;;;;;10.13;7.37;;;7.00;72.10;5.20;96578.00;;;;5081909;28;20200;-81
2024/01/19 10:47:57;;;;;;;11.37;7.90;;;7.10;72.20;5.20;96587.00;;;;5083128;28;20210;-84
2024/01/19 10:50:28;;;;;;;16.97;10.17;;;7.10;72.50;5.30;96592.00;;;;5087648;28;20226;-83
2024/01/19 10:52:59;;;;;;;11.17;8.33;;;7.10;72.50;5.30;96593.00;;;;5089485;28;20195;-83
2024/01/19 10:55:32;;;;;;;12.00;8.37;;;7.10;72.20;5.40;96600.00;;;;5093037;28;20180;-83
2024/01/19 10:58:15;;;;;;;10.53;7.53;;;7.10;72.30;5.40;96596.00;;;;5086989;28;20187;-84
2024/01/19 11:00:46;;;;;;;10.03;8.07;;;7.10;71.80;5.40;96596.00;;;;5087506;28;20596;-85
2024/01/19 11:03:17;;;;;;;10.23;8.10;;;7.10;72.00;5.30;96589.00;;;;5081584;28;20204;-85
2024/01/19 11:05:56;;;;;;;9.73;7.50;;;7.10;71.60;5.40;96578.00;;;;5083182;28;20204;-85
2024/01/19 11:08:28;;;;;;;10.00;8.23;;;7.70;72.10;5.40;96594.00;;;;5079347;28;20223;-83
2024/01/19 11:10:58;;;;;;;9.13;7.53;;;7.20;72.10;5.50;96593.00;;;;5080470;28;20246;-82
2024/01/19 11:13:29;;;;;;;10.70;8.10;;;7.20;72.00;5.50;96604.00;;;;5077919;28;20207;-82